Time;durP1;ratioP1;P1;durP2;ratioP2;P2;SDS_P1;SDS_P2;PMS_P1;PMS_P2;Temp;Humidity;BMP_temperature;BMP_pressure;BME280_temperature;BME280_humidity;BME280_pressure;Samples;Min_cycle;Max_cycle;Signal;HPM_P1;HPM_P2
2023/12/02 00:00:41;;;;;;;31.50;18.20;;;;;;;-3.28;93.94;97480.47;436237;1253;99311;-39
2023/12/02 00:11:09;;;;;;;29.80;16.70;;;;;;;-3.17;94.14;97489.02;436167;1254;110618;-41
2023/12/02 00:21:16;;;;;;;43.20;19.10;;;;;;;-3.05;93.97;97484.21;436160;1248;98805;-40
2023/12/02 00:31:23;;;;;;;46.40;20.80;;;;;;;-3.17;93.97;97471.28;436292;1253;113045;-40
2023/12/02 00:41:30;;;;;;;40.70;18.90;;;;;;;-3.31;94.27;97496.86;436238;1248;107649;-40
2023/12/02 00:51:36;;;;;;;30.40;15.50;;;;;;;-3.37;94.16;97501.95;436066;1252;319654;-40
2023/12/02 01:01:43;;;;;;;37.50;16.60;;;;;;;-3.36;93.92;97501.14;436240;1254;108167;-40
2023/12/02 01:11:50;;;;;;;22.40;11.60;;;;;;;-3.31;93.95;97457.05;436319;1253;98839;-39
2023/12/02 01:21:57;;;;;;;22.10;10.50;;;;;;;-3.24;94.03;97463.03;436149;1253;111279;-38
2023/12/02 01:32:03;;;;;;;25.80;11.10;;;;;;;-3.14;94.19;97456.84;436198;1253;108258;-39
2023/12/02 01:42:11;;;;;;;28.50;10.60;;;;;;;-3.21;94.18;97438.11;436320;1253;99206;-38
2023/12/02 01:52:18;;;;;;;17.80;8.90;;;;;;;-3.17;94.20;97458.03;436355;1252;112528;-40
2023/12/02 02:02:26;;;;;;;11.50;7.00;;;;;;;-3.10;94.07;97415.67;436202;1247;106777;-40
2023/12/02 02:12:33;;;;;;;21.80;8.60;;;;;;;-3.00;94.16;97422.77;436380;1248;98791;-39
2023/12/02 02:22:40;;;;;;;29.10;12.50;;;;;;;-3.02;94.10;97437.01;437520;1251;108595;-40
2023/12/02 02:32:47;;;;;;;27.30;13.30;;;;;;;-3.11;94.35;97436.36;436985;1248;99206;-40
2023/12/02 02:42:54;;;;;;;24.10;11.80;;;;;;;-3.19;94.18;97430.22;436967;1247;111837;-39
2023/12/02 02:53:01;;;;;;;27.60;14.40;;;;;;;-3.28;93.94;97459.11;437038;1258;107900;-39
2023/12/02 03:03:09;;;;;;;31.30;16.80;;;;;;;-3.30;93.88;97455.50;437245;1251;98027;-41
2023/12/02 03:13:17;;;;;;;43.70;18.60;;;;;;;-3.31;94.03;97445.88;437273;1247;108923;-41
2023/12/02 03:23:25;;;;;;;58.30;29.10;;;;;;;-3.37;94.27;97429.45;437237;1248;99248;-40
2023/12/02 03:33:32;;;;;;;78.10;34.00;;;;;;;-3.49;94.16;97444.59;437156;1247;111464;-40
2023/12/02 03:43:39;;;;;;;62.30;33.30;;;;;;;-3.53;94.04;97423.14;436933;1248;108425;-39
2023/12/02 03:54:03;;;;;;;73.80;36.90;;;;;;;-3.50;94.16;97415.27;436963;1251;99207;-40
2023/12/02 04:04:11;;;;;;;104.30;50.50;;;;;;;-3.52;94.26;97431.88;436927;1251;111878;-40
2023/12/02 04:14:18;;;;;;;118.10;53.20;;;;;;;-3.57;94.43;97426.20;436866;1251;107587;-39
2023/12/02 04:24:25;;;;;;;85.00;43.20;;;;;;;-3.57;94.23;97412.23;436261;1247;99255;-39
2023/12/02 04:34:33;;;;;;;78.60;38.80;;;;;;;-3.50;94.13;97405.29;436155;1254;107665;-40
2023/12/02 04:44:40;;;;;;;104.30;45.90;;;;;;;-3.49;94.29;97383.73;436253;1248;99217;-41
2023/12/02 04:54:47;;;;;;;105.10;47.80;;;;;;;-3.53;94.24;97398.91;436294;1253;110946;-42
2023/12/02 05:04:54;;;;;;;114.10;51.00;;;;;;;-3.59;94.03;97408.82;436133;1253;107939;-39
2023/12/02 05:15:01;;;;;;;96.70;45.90;;;;;;;-3.64;94.11;97395.96;436258;1247;98819;-39
2023/12/02 05:25:10;;;;;;;84.60;41.50;;;;;;;-3.57;93.82;97384.29;436122;1253;108529;-40
2023/12/02 05:35:16;;;;;;;;;;;;;;;-3.48;93.66;97365.10;436397;1252;98842;-40
2023/12/02 05:45:23;;;;;;;114.80;49.50;;;;;;;-3.57;93.81;97351.30;436366;1252;112667;-39
2023/12/02 05:55:30;;;;;;;115.00;51.20;;;;;;;-3.70;93.77;97350.34;436255;1248;109551;-40
2023/12/02 06:15:44;;;;;;;91.40;44.00;;;;;;;-3.58;93.59;97356.36;436416;1250;112881;-42
2023/12/02 06:25:50;;;;;;;121.70;53.20;;;;;;;-3.61;93.66;97359.09;436342;1248;109105;-39
2023/12/02 06:35:58;;;;;;;114.30;52.60;;;;;;;-3.65;93.52;97354.77;436381;1252;99227;-39
2023/12/02 06:46:06;;;;;;;83.50;41.30;;;;;;;-3.69;93.43;97338.84;436399;1252;111316;-40
2023/12/02 06:56:19;;;;;;;94.70;41.90;;;;;;;-3.61;93.62;97352.38;436444;1248;108364;-40
2023/12/02 07:06:26;;;;;;;98.30;46.20;;;;;;;-3.59;93.76;97391.73;436334;1253;99248;-40
2023/12/02 07:16:33;;;;;;;107.30;46.00;;;;;;;-3.56;93.70;97397.14;436472;1252;108052;-40
2023/12/02 07:26:40;;;;;;;66.40;33.60;;;;;;;-3.48;93.67;97413.05;436377;1253;99317;-41
2023/12/02 07:36:46;;;;;;;65.40;32.70;;;;;;;-3.29;93.40;97406.86;436339;1253;111598;-39
2023/12/02 07:46:53;;;;;;;79.60;36.50;;;;;;;-3.26;93.64;97411.41;436340;1248;108449;-39
2023/12/02 07:57:00;;;;;;;97.00;42.10;;;;;;;-3.26;93.76;97449.11;436439;1248;99349;-40
2023/12/02 08:17:14;;;;;;;68.10;35.30;;;;;;;-3.14;93.47;97450.11;436317;1248;98245;-40
2023/12/02 08:27:21;;;;;;;89.00;38.70;;;;;;;-3.03;93.44;97451.32;436189;1247;111962;-40
2023/12/02 08:37:28;;;;;;;87.00;41.10;;;;;;;-3.06;93.52;97423.73;436535;1248;107030;-40
2023/12/02 08:47:35;;;;;;;64.70;31.80;;;;;;;-3.04;93.33;97419.03;436374;1248;99223;-39
2023/12/02 08:57:42;;;;;;;56.40;28.50;;;;;;;-2.86;93.67;97430.79;436386;1248;112388;-38
2023/12/02 09:07:49;;;;;;;75.90;36.00;;;;;;;-2.76;93.71;97420.36;436352;1253;109761;-38
2023/12/02 09:18:16;;;;;;;79.20;36.20;;;;;;;-2.75;93.75;97423.68;436326;1252;99244;-40
2023/12/02 09:48:42;;;;;;;67.70;33.90;;;;;;;-2.32;93.99;97418.72;436438;1253;98035;-39
2023/12/02 09:58:54;;;;;;;71.90;35.60;;;;;;;-2.27;93.90;97428.59;436366;1253;111271;-39
2023/12/02 10:09:15;;;;;;;44.50;26.40;;;;;;;-2.18;93.80;97421.98;436354;1253;108238;-40
2023/12/02 10:19:31;;;;;;;51.60;26.20;;;;;;;-2.04;93.58;97410.38;436306;1248;97938;-39
2023/12/02 10:29:36;;;;;;;59.80;31.80;;;;;;;-2.01;93.87;97402.38;436399;1252;112663;-40
2023/12/02 10:49:50;;;;;;;39.20;23.10;;;;;;;-2.14;93.42;97359.76;436155;1253;99371;-40
2023/12/02 11:00:01;;;;;;;69.40;32.80;;;;;;;-2.09;93.90;97359.59;436354;1253;110105;-39
2023/12/02 11:10:10;;;;;;;74.70;37.20;;;;;;;-1.97;94.05;97393.20;436365;1248;107829;-39
2023/12/02 11:20:20;;;;;;;53.20;26.70;;;;;;;-2.02;93.48;97367.61;436382;1251;99207;-39
2023/12/02 11:30:32;;;;;;;51.70;27.70;;;;;;;-1.94;93.59;97354.97;436404;1253;107780;-40
2023/12/02 11:51:05;;;;;;;68.20;34.00;;;;;;;-2.09;93.50;97362.82;436587;1253;111233;-39
2023/12/02 12:01:28;;;;;;;51.20;26.50;;;;;;;-2.01;93.43;97356.66;436151;1249;108028;-40
2023/12/02 12:11:38;;;;;;;48.50;24.10;;;;;;;-1.96;93.44;97351.36;436469;1253;98011;-41
2023/12/02 12:21:47;;;;;;;54.60;27.60;;;;;;;-1.93;93.81;97348.77;436426;1253;112369;-41
2023/12/02 12:31:56;;;;;;;58.80;29.60;;;;;;;-2.03;93.61;97328.41;436406;1248;108304;-41
2023/12/02 12:42:03;;;;;;;41.00;21.70;;;;;;;-2.09;93.53;97332.94;436085;1250;473181;-40
2023/12/02 13:02:21;;;;;;;73.60;32.20;;;;;;;-2.14;93.52;97337.81;436353;1249;99148;-39
2023/12/02 13:12:33;;;;;;;75.50;35.80;;;;;;;-2.28;93.83;97338.15;436337;1251;110887;-40
2023/12/02 13:22:40;;;;;;;66.10;32.50;;;;;;;-2.39;93.43;97330.08;436376;1253;107628;-41
2023/12/02 13:32:50;;;;;;;53.20;29.90;;;;;;;-2.40;93.48;97333.04;436313;1250;99218;-40
2023/12/02 13:42:59;;;;;;;89.80;42.20;;;;;;;-2.38;93.52;97359.12;436325;1251;111310;-39
2023/12/02 13:53:05;;;;;;;97.70;46.20;;;;;;;-2.47;93.71;97352.40;436367;1251;108084;-39
2023/12/02 14:03:15;;;;;;;97.70;46.70;;;;;;;-2.57;93.78;97356.48;436529;1252;97985;-40
2023/12/02 14:13:28;;;;;;;75.00;41.90;;;;;;;-2.59;93.61;97347.77;436301;1254;111274;-41
2023/12/02 14:34:25;;;;;;;82.50;42.70;;;;;;;-2.53;93.78;97368.48;436377;1251;99285;-41
2023/12/02 14:44:32;;;;;;;123.50;55.90;;;;;;;-2.58;94.11;97360.77;436370;1253;108476;-40
2023/12/02 14:54:41;;;;;;;120.00;53.10;;;;;;;-2.73;94.08;97396.56;436341;1253;98049;-41
2023/12/02 15:04:52;;;;;;;118.80;54.90;;;;;;;-2.72;94.07;97401.80;436236;1253;111880;-39
2023/12/02 15:14:59;;;;;;;105.10;51.20;;;;;;;-2.72;94.16;97377.44;436217;1253;107254;-40
2023/12/02 15:45:19;;;;;;;129.30;57.90;;;;;;;-2.86;94.82;97396.58;436405;1253;98567;-40
2023/12/02 15:55:26;;;;;;;127.30;61.70;;;;;;;-2.86;94.88;97361.61;436323;1252;111103;-39
2023/12/02 16:05:32;;;;;;;125.70;57.20;;;;;;;-2.85;94.88;97338.90;436501;1251;107797;-39
2023/12/02 16:15:41;;;;;;;131.30;58.90;;;;;;;-2.85;95.09;97396.10;436322;1251;98816;-40
2023/12/02 16:46:02;;;;;;;130.90;54.70;;;;;;;-2.99;95.63;97474.02;436354;1251;111198;-41
2023/12/02 17:06:28;;;;;;;149.30;54.60;;;;;;;-3.00;95.55;97435.96;436508;1253;99340;-40
2023/12/02 17:17:01;;;;;;;111.60;44.90;;;;;;;-3.10;95.79;97406.55;436301;1254;108297;-40
2023/12/02 17:27:12;;;;;;;90.60;38.00;;;;;;;-3.09;95.82;97359.08;436287;1254;99388;-39
2023/12/02 17:37:18;;;;;;;91.80;39.40;;;;;;;-3.12;95.97;97449.20;436243;1254;111055;-40
2023/12/02 17:47:25;;;;;;;96.00;37.90;;;;;;;-3.03;96.11;97547.00;436323;1248;108524;-39
2023/12/02 17:57:33;;;;;;;101.20;40.50;;;;;;;-3.06;96.24;97562.02;436300;1248;98002;-41
2023/12/02 18:07:40;;;;;;;84.30;31.20;;;;;;;-3.09;96.36;97484.23;436348;1252;108424;-40
2023/12/02 18:17:47;;;;;;;73.10;30.70;;;;;;;-3.08;96.52;97494.83;436183;1248;101324;-39
2023/12/02 18:27:54;;;;;;;73.90;32.50;;;;;;;-3.05;96.56;97535.19;436125;1255;111913;-41
2023/12/02 18:38:01;;;;;;;98.80;38.20;;;;;;;-3.06;96.58;97570.89;436382;1261;107671;-40
2023/12/02 18:48:08;;;;;;;71.60;29.00;;;;;;;-3.08;96.68;97588.08;436280;1261;99240;-40
2023/12/02 18:58:16;;;;;;;63.50;26.00;;;;;;;-3.02;96.69;97593.01;436400;1253;108589;-40
2023/12/02 19:08:23;;;;;;;53.50;24.20;;;;;;;-3.02;96.95;97609.72;436340;1248;99231;-39
2023/12/02 19:18:30;;;;;;;72.70;30.70;;;;;;;-3.03;96.91;97636.39;436299;1253;112085;-39
2023/12/02 19:28:36;;;;;;;60.70;26.00;;;;;;;-3.07;97.04;97651.20;436103;1248;107804;-40
2023/12/02 19:38:43;;;;;;;56.10;25.00;;;;;;;-3.02;96.71;97671.75;436319;1255;99209;-39
2023/12/02 19:48:48;;;;;;;55.60;24.60;;;;;;;-3.00;96.82;97685.45;436137;1253;108331;-40
2023/12/02 20:09:01;;;;;;;51.20;23.20;;;;;;;-3.08;97.10;97702.91;436228;1254;112009;-40
2023/12/02 20:19:09;;;;;;;63.00;26.20;;;;;;;-3.04;97.09;97711.65;436321;1248;108528;-39
2023/12/02 20:29:16;;;;;;;58.10;22.50;;;;;;;-3.02;97.20;97725.02;436260;1261;99337;-40
2023/12/02 20:39:22;;;;;;;64.60;28.10;;;;;;;-2.99;97.24;97736.59;436069;1248;106894;-39
2023/12/02 20:59:35;;;;;;;54.10;24.20;;;;;;;-3.04;97.46;97771.29;436281;1254;112137;-38
2023/12/02 21:09:42;;;;;;;50.00;20.10;;;;;;;-2.99;97.37;97786.92;436269;1248;106786;-39
2023/12/02 21:19:49;;;;;;;38.30;15.90;;;;;;;-2.99;97.24;97803.64;436323;1248;97978;-39
2023/12/02 21:29:56;;;;;;;44.50;19.20;;;;;;;-3.01;97.41;97820.06;436064;1254;107344;-39
2023/12/02 21:40:07;;;;;;;40.00;18.10;;;;;;;-3.06;97.59;97832.48;436069;1248;99311;-38
2023/12/02 22:20:31;;;;;;;57.90;22.30;;;;;;;-3.04;97.71;97879.42;436293;1252;111973;-40
2023/12/02 22:40:49;;;;;;;49.90;22.70;;;;;;;-2.95;97.49;97913.20;436298;1248;97963;-40
2023/12/02 22:50:55;;;;;;;72.50;28.70;;;;;;;-2.90;97.33;97921.27;436116;1248;107805;-40
2023/12/02 23:01:01;;;;;;;81.40;33.80;;;;;;;-2.99;97.44;97943.11;436318;1248;99228;-39
2023/12/02 23:11:22;;;;;;;64.60;27.20;;;;;;;-3.03;97.40;97949.90;436216;1248;110639;-40
2023/12/02 23:21:29;;;;;;;68.60;27.50;;;;;;;-2.96;97.19;97966.59;436316;1254;108267;-39
2023/12/02 23:31:36;;;;;;;63.90;26.10;;;;;;;-2.91;97.30;97978.98;436328;1252;99148;-38
2023/12/02 23:41:45;;;;;;;82.20;32.70;;;;;;;-2.87;97.43;97980.52;436235;1247;107252;-38
2023/12/02 23:51:51;;;;;;;;;;;;;;;-2.92;97.36;97982.95;436178;1253;99211;-42
